createdAt,value
2023-02-15T00:01:49.221Z,14.32
2023-02-15T00:04:21.042Z,13.13
2023-02-15T00:06:48.212Z,12.80
2023-02-15T00:09:14.562Z,13.50
2023-02-15T00:11:41.770Z,13.43
2023-02-15T00:14:17.541Z,13.55
2023-02-15T00:16:45.055Z,13.60
2023-02-15T00:19:13.523Z,12.40
2023-02-15T00:21:40.383Z,12.63
2023-02-15T00:24:09.010Z,12.70
2023-02-15T00:26:36.275Z,12.63
2023-02-15T00:29:02.856Z,13.95
2023-02-15T00:31:31.776Z,12.02
2023-02-15T00:34:11.360Z,12.73
2023-02-15T00:36:37.917Z,11.80
2023-02-15T00:39:05.494Z,12.73
2023-02-15T00:41:32.968Z,12.50
2023-02-15T00:43:59.385Z,13.75
2023-02-15T00:46:25.804Z,12.13
2023-02-15T00:48:52.173Z,11.75
2023-02-15T00:51:18.633Z,11.98
2023-02-15T00:53:45.269Z,12.60
2023-02-15T00:56:11.841Z,11.85
2023-02-15T00:58:38.197Z,11.90
2023-02-15T01:01:14.695Z,12.38
2023-02-15T01:06:11.591Z,12.38
2023-02-15T01:08:38.284Z,11.70
2023-02-15T01:11:10.020Z,12.80
2023-02-15T01:13:37.073Z,12.60
2023-02-15T01:16:05.345Z,12.85
2023-02-15T01:18:35.770Z,11.85
2023-02-15T01:21:14.613Z,12.80
2023-02-15T01:23:42.466Z,12.95
2023-02-15T01:26:10.345Z,12.13
2023-02-15T01:28:37.359Z,12.38
2023-02-15T01:31:16.758Z,11.57
2023-02-15T01:33:43.248Z,12.23
2023-02-15T01:36:10.383Z,12.68
2023-02-15T01:38:37.437Z,13.18
2023-02-15T01:41:22.745Z,11.95
2023-02-15T01:43:57.932Z,12.20
2023-02-15T01:46:41.386Z,12.73
2023-02-15T01:49:20.386Z,12.27
2023-02-15T01:51:50.045Z,12.38
2023-02-15T01:54:25.427Z,12.73
2023-02-15T01:56:51.857Z,12.32
2023-02-15T01:59:23.890Z,12.25
2023-02-15T02:01:53.143Z,13.10
2023-02-15T02:04:33.646Z,12.63
2023-02-15T02:07:00.930Z,13.52
2023-02-15T02:09:27.790Z,13.00
2023-02-15T02:11:55.261Z,13.10
2023-02-15T02:14:22.469Z,12.70
2023-02-15T02:17:19.275Z,11.63
2023-02-15T02:20:17.508Z,12.75
2023-02-15T02:23:18.078Z,12.48
2023-02-15T02:26:03.239Z,13.48
2023-02-15T02:28:54.956Z,13.30
2023-02-15T02:31:30.454Z,12.38
2023-02-15T02:34:06.681Z,13.02
2023-02-15T02:36:40.630Z,13.07
2023-02-15T02:39:30.301Z,13.38
2023-02-15T02:42:40.643Z,13.07
2023-02-15T02:45:18.104Z,12.63
2023-02-15T02:47:49.857Z,12.15
2023-02-15T02:50:22.344Z,12.77
2023-02-15T02:52:53.854Z,12.77
2023-02-15T02:55:26.505Z,13.60
2023-02-15T02:57:56.560Z,12.88
2023-02-15T03:00:26.512Z,12.98
2023-02-15T03:02:59.278Z,12.73
2023-02-15T03:05:28.703Z,13.63
2023-02-15T03:07:57.832Z,13.48
2023-02-15T03:10:25.390Z,13.55
2023-02-15T03:12:53.015Z,12.88
2023-02-15T03:15:26.243Z,13.57
2023-02-15T03:17:58.414Z,13.27
2023-02-15T03:20:37.307Z,12.98
2023-02-15T03:23:12.015Z,12.10
2023-02-15T03:25:42.498Z,13.57
2023-02-15T03:28:13.738Z,12.50
2023-02-15T03:30:44.277Z,12.23
2023-02-15T03:33:11.724Z,12.85
2023-02-15T03:36:02.069Z,12.35
2023-02-15T03:38:49.050Z,13.18
2023-02-15T03:41:17.939Z,13.07
2023-02-15T03:43:59.191Z,12.75
2023-02-15T03:46:42.213Z,14.73
2023-02-15T03:49:15.104Z,13.27
2023-02-15T03:51:44.986Z,12.95
2023-02-15T03:54:36.110Z,13.10
2023-02-15T03:57:21.228Z,12.60
2023-02-15T04:00:06.300Z,13.95
2023-02-15T04:02:40.917Z,12.50
2023-02-15T04:05:07.280Z,13.27
2023-02-15T04:07:33.608Z,13.13
2023-02-15T04:10:18.704Z,14.10
2023-02-15T04:12:45.004Z,13.65
2023-02-15T04:15:33.040Z,15.43
2023-02-15T04:17:59.359Z,14.10
2023-02-15T04:20:44.315Z,13.65
2023-02-15T04:23:28.970Z,13.82
2023-02-15T04:25:55.314Z,12.88
2023-02-15T04:28:21.682Z,13.18
2023-02-15T04:30:48.325Z,14.32
2023-02-15T04:33:14.643Z,12.73
2023-02-15T04:35:41.015Z,14.13
2023-02-15T04:38:07.405Z,13.43
2023-02-15T04:40:33.726Z,13.27
2023-02-15T04:43:00.068Z,14.10
2023-02-15T04:45:27.918Z,12.25
2023-02-15T04:47:54.345Z,13.70
2023-02-15T04:50:20.745Z,13.45
2023-02-15T04:52:47.538Z,14.13
2023-02-15T04:55:14.957Z,14.05
2023-02-15T04:57:41.339Z,14.38
2023-02-15T05:00:09.577Z,14.35
2023-02-15T05:02:35.901Z,13.18
2023-02-15T05:05:02.208Z,15.48
2023-02-15T05:07:28.527Z,15.23
2023-02-15T05:09:54.835Z,14.43
2023-02-15T05:12:21.500Z,14.73
2023-02-15T05:14:47.812Z,15.02
2023-02-15T05:17:14.128Z,14.73
2023-02-15T05:19:40.445Z,13.73
2023-02-15T05:22:06.804Z,14.32
2023-02-15T05:24:51.810Z,15.15
2023-02-15T05:27:36.683Z,14.57
2023-02-15T05:30:03.500Z,14.30
2023-02-15T05:32:29.950Z,14.40
2023-02-15T05:34:56.302Z,15.43
2023-02-15T05:37:22.636Z,15.98
2023-02-15T05:39:48.965Z,13.82
2023-02-15T05:42:15.245Z,14.57
2023-02-15T05:44:41.569Z,14.60
2023-02-15T05:47:08.369Z,15.68
2023-02-15T05:49:35.047Z,14.65
2023-02-15T05:52:01.335Z,15.57
2023-02-15T05:54:28.446Z,14.82
2023-02-15T05:56:54.844Z,16.10
2023-02-15T05:59:21.198Z,14.40
2023-02-15T06:01:47.529Z,14.93
2023-02-15T06:04:14.172Z,14.60
2023-02-15T06:06:40.749Z,14.23
2023-02-15T06:09:07.141Z,16.25
2023-02-15T06:11:33.464Z,14.35
2023-02-15T06:13:59.804Z,14.93
2023-02-15T06:16:26.220Z,16.13
2023-02-15T06:18:53.806Z,13.75
2023-02-15T06:21:20.275Z,15.40
2023-02-15T06:23:46.905Z,14.80
2023-02-15T06:26:13.260Z,15.73
2023-02-15T06:28:39.576Z,14.02
2023-02-15T06:31:06.330Z,14.02
2023-02-15T06:33:34.649Z,15.05
2023-02-15T06:36:02.914Z,15.10
2023-02-15T06:38:29.426Z,15.02
2023-02-15T06:40:55.740Z,15.90
2023-02-15T06:43:22.151Z,15.07
2023-02-15T06:45:48.741Z,14.95
2023-02-15T06:48:15.253Z,15.77
2023-02-15T06:50:41.614Z,15.82
2023-02-15T06:53:07.950Z,15.35
2023-02-15T06:55:34.277Z,14.38
2023-02-15T06:58:00.587Z,15.73
2023-02-15T07:00:26.927Z,14.38
2023-02-15T07:02:59.392Z,15.55
2023-02-15T07:05:31.549Z,15.65
2023-02-15T07:08:01.415Z,14.50
2023-02-15T07:10:28.322Z,14.88
2023-02-15T07:12:54.697Z,14.73
2023-02-15T07:15:22.671Z,15.10
2023-02-15T07:17:49.922Z,13.85
2023-02-15T07:20:20.405Z,15.82
2023-02-15T07:22:46.872Z,14.90
2023-02-15T07:25:13.966Z,14.82
2023-02-15T07:27:41.130Z,15.02
2023-02-15T07:30:11.170Z,14.82
2023-02-15T07:32:37.755Z,16.40
2023-02-15T07:35:04.334Z,14.50
2023-02-15T07:37:30.664Z,14.52
2023-02-15T07:39:56.965Z,14.40
2023-02-15T07:42:23.701Z,14.07
2023-02-15T07:44:50.058Z,14.88
2023-02-15T07:47:16.429Z,14.75
2023-02-15T07:49:42.990Z,14.82
2023-02-15T07:52:09.373Z,14.07
2023-02-15T07:54:35.768Z,14.30
2023-02-15T07:57:02.680Z,15.18
2023-02-15T07:59:29.001Z,14.82
2023-02-15T08:01:57.125Z,13.93
2023-02-15T08:06:57.280Z,13.70
2023-02-15T08:09:23.702Z,15.15
2023-02-15T08:11:50.570Z,13.95
2023-02-15T08:14:22.868Z,13.52
2023-02-15T08:16:55.657Z,14.10
2023-02-15T08:19:25.155Z,14.55
2023-02-15T08:21:55.462Z,14.00
2023-02-15T08:24:23.315Z,15.15
2023-02-15T08:26:50.319Z,14.02
2023-02-15T08:29:18.885Z,13.77
2023-02-15T08:31:46.630Z,13.07
2023-02-15T08:34:16.297Z,14.60
2023-02-15T08:36:42.972Z,13.38
2023-02-15T08:39:09.306Z,14.10
2023-02-15T08:41:37.311Z,13.23
2023-02-15T08:44:06.709Z,14.40
2023-02-15T08:46:35.661Z,13.65
2023-02-15T08:49:02.975Z,13.70
2023-02-15T08:51:32.219Z,13.60
2023-02-15T08:54:01.229Z,13.98
2023-02-15T08:56:30.990Z,14.07
2023-02-15T08:58:57.715Z,14.20
2023-02-15T09:01:27.263Z,12.93
2023-02-15T09:04:00.760Z,15.07
2023-02-15T09:06:28.055Z,14.40
2023-02-15T09:08:55.718Z,13.65
2023-02-15T09:11:24.845Z,13.68
2023-02-15T09:13:57.539Z,13.98
2023-02-15T09:16:25.715Z,13.77
2023-02-15T09:18:52.715Z,13.40
2023-02-15T09:21:22.522Z,13.55
2023-02-15T09:23:51.630Z,14.75
2023-02-15T09:26:23.566Z,13.80
2023-02-15T09:28:54.326Z,14.18
2023-02-15T09:31:23.167Z,12.82
2023-02-15T09:33:50.630Z,13.82
2023-02-15T09:36:23.247Z,13.00
2023-02-15T09:38:57.227Z,14.10
2023-02-15T09:41:39.603Z,13.77
2023-02-15T09:44:05.873Z,13.27
2023-02-15T09:47:03.919Z,12.95
2023-02-15T09:49:43.410Z,13.32
2023-02-15T09:52:36.344Z,12.95
2023-02-15T09:55:21.768Z,14.10
2023-02-15T09:58:03.333Z,13.73
2023-02-15T10:00:50.348Z,12.88
2023-02-15T10:03:57.130Z,18.90
2023-02-15T10:06:47.955Z,14.63
2023-02-15T10:09:44.844Z,14.43
2023-02-15T10:12:18.396Z,12.27
2023-02-15T10:15:03.448Z,14.73
2023-02-15T10:18:04.113Z,12.55
2023-02-15T10:20:55.099Z,12.52
2023-02-15T10:23:42.881Z,13.63
2023-02-15T10:26:27.002Z,12.82
2023-02-15T10:29:01.709Z,12.85
2023-02-15T10:31:36.000Z,12.80
2023-02-15T10:34:31.506Z,12.80
2023-02-15T10:37:09.859Z,12.18
2023-02-15T10:39:49.102Z,13.52
2023-02-15T10:42:28.852Z,11.27
2023-02-15T10:45:09.699Z,8.55
2023-02-15T10:48:03.529Z,13.13
2023-02-15T10:50:42.829Z,12.93
2023-02-15T10:53:16.807Z,12.98
2023-02-15T10:55:53.155Z,12.07
2023-02-15T10:58:38.479Z,15.65
2023-02-15T11:01:25.748Z,12.88
2023-02-15T11:04:02.064Z,14.32
2023-02-15T11:06:29.059Z,12.10
2023-02-15T11:09:01.820Z,13.32
2023-02-15T11:11:36.969Z,12.93
2023-02-15T11:14:15.929Z,13.88
2023-02-15T11:16:47.584Z,11.77
2023-02-15T11:19:24.904Z,12.43
2023-02-15T11:21:55.936Z,14.20
2023-02-15T11:27:00.955Z,11.57
2023-02-15T11:29:37.317Z,13.13
2023-02-15T11:32:19.178Z,13.40
2023-02-15T11:34:56.817Z,13.35
2023-02-15T11:37:34.737Z,16.77
2023-02-15T11:40:04.206Z,12.65
2023-02-15T11:42:32.564Z,13.13
2023-02-15T11:45:31.117Z,13.02
2023-02-15T11:47:59.024Z,13.75
2023-02-15T11:50:29.343Z,13.85
2023-02-15T11:53:03.160Z,13.07
2023-02-15T11:55:30.608Z,12.50
2023-02-15T11:58:31.224Z,13.15
2023-02-15T12:01:08.817Z,12.48
2023-02-15T12:03:46.091Z,13.00
2023-02-15T12:06:21.597Z,13.63
2023-02-15T12:08:55.284Z,14.00
2023-02-15T12:11:30.075Z,13.48
2023-02-15T12:13:59.502Z,12.70
2023-02-15T12:16:28.500Z,12.73
2023-02-15T12:18:58.524Z,11.45
2023-02-15T12:21:31.240Z,13.77
2023-02-15T12:24:04.849Z,13.07
2023-02-15T12:26:35.029Z,12.50
2023-02-15T12:29:17.050Z,12.82
2023-02-15T12:31:48.868Z,13.07
2023-02-15T12:34:28.276Z,12.88
2023-02-15T12:37:01.475Z,12.82
2023-02-15T12:39:32.911Z,13.88
2023-02-15T12:42:16.326Z,13.65
2023-02-15T12:44:55.583Z,12.32
2023-02-15T12:47:28.925Z,12.35
2023-02-15T12:50:17.786Z,11.73
2023-02-15T12:52:46.556Z,12.30
2023-02-15T12:55:26.271Z,12.65
2023-02-15T12:58:19.008Z,11.85
2023-02-15T13:00:46.672Z,12.45
2023-02-15T13:03:19.063Z,12.43
2023-02-15T13:05:55.038Z,13.02
2023-02-15T13:08:27.997Z,12.20
2023-02-15T13:10:55.648Z,13.63
2023-02-15T13:13:35.410Z,12.50
2023-02-15T13:16:06.788Z,13.45
2023-02-15T13:18:38.068Z,11.98
2023-02-15T13:21:13.146Z,13.07
2023-02-15T13:23:46.019Z,13.75
2023-02-15T13:26:19.815Z,14.07
2023-02-15T13:28:59.206Z,13.43
2023-02-15T13:31:29.427Z,12.88
2023-02-15T13:34:03.378Z,12.93
2023-02-15T13:36:44.213Z,14.45
2023-02-15T13:39:21.983Z,13.02
2023-02-15T13:42:16.522Z,13.32
2023-02-15T13:45:01.996Z,13.63
2023-02-15T13:47:37.040Z,15.02
2023-02-15T13:50:29.921Z,14.10
2023-02-15T13:53:08.480Z,15.05
2023-02-15T13:55:45.016Z,16.02
2023-02-15T13:58:20.614Z,14.82
2023-02-15T14:01:10.018Z,14.50
2023-02-15T14:04:02.867Z,14.05
2023-02-15T14:07:03.311Z,14.80
2023-02-15T14:10:19.754Z,14.93
2023-02-15T14:13:07.962Z,13.50
2023-02-15T14:15:48.006Z,13.68
2023-02-15T14:18:40.741Z,14.90
2023-02-15T14:21:10.054Z,13.48
2023-02-15T14:23:42.358Z,15.15
2023-02-15T14:26:33.614Z,14.02
2023-02-15T14:31:41.544Z,13.88
2023-02-15T14:34:21.879Z,13.95
2023-02-15T14:36:49.772Z,13.13
2023-02-15T14:39:53.829Z,14.75
2023-02-15T14:42:49.056Z,13.98
2023-02-15T14:45:28.643Z,13.88
2023-02-15T14:48:05.148Z,14.30
2023-02-15T14:50:31.443Z,13.88
2023-02-15T14:53:36.822Z,14.00
2023-02-15T14:56:14.421Z,13.77
2023-02-15T14:58:57.157Z,13.23
2023-02-15T15:01:28.546Z,14.10
2023-02-15T15:03:59.374Z,14.13
2023-02-15T15:06:36.142Z,14.60
2023-02-15T15:09:28.764Z,13.93
2023-02-15T15:12:14.350Z,14.32
2023-02-15T15:14:44.169Z,14.50
2023-02-15T15:17:12.592Z,14.40
2023-02-15T15:19:52.604Z,13.32
2023-02-15T15:22:30.763Z,14.32
2023-02-15T15:25:12.403Z,15.43
2023-02-15T15:27:55.746Z,15.98
2023-02-15T15:30:22.105Z,14.73
2023-02-15T15:32:54.512Z,14.40
2023-02-15T15:35:45.885Z,15.45
2023-02-15T15:38:57.263Z,14.20
2023-02-15T15:41:35.354Z,15.63
2023-02-15T15:44:27.003Z,13.88
2023-02-15T15:47:51.268Z,15.25
2023-02-15T15:50:21.447Z,14.55
2023-02-15T15:52:53.007Z,15.25
2023-02-15T15:55:23.740Z,16.33
2023-02-15T15:58:00.677Z,15.63
2023-02-15T16:00:33.948Z,15.02
2023-02-15T16:03:00.630Z,14.70
2023-02-15T16:05:27.062Z,14.55
2023-02-15T16:07:53.440Z,16.45
2023-02-15T16:10:24.288Z,15.00
2023-02-15T16:12:52.035Z,15.20
2023-02-15T16:15:21.711Z,15.70
2023-02-15T16:17:55.676Z,14.30
2023-02-15T16:20:37.393Z,15.65
2023-02-15T16:23:37.544Z,14.32
2023-02-15T16:26:45.773Z,14.35
2023-02-15T16:29:17.689Z,13.68
2023-02-15T16:31:44.818Z,14.57
2023-02-15T16:34:18.577Z,14.32
2023-02-15T16:36:44.900Z,13.68
2023-02-15T16:39:19.792Z,14.48
2023-02-15T16:41:47.838Z,14.75
2023-02-15T16:44:19.064Z,12.82
2023-02-15T16:46:50.569Z,13.77
2023-02-15T16:49:27.088Z,14.95
2023-02-15T16:52:06.853Z,13.57
2023-02-15T16:54:34.719Z,14.13
2023-02-15T16:57:01.177Z,14.23
2023-02-15T16:59:47.882Z,14.07
2023-02-15T17:02:55.217Z,14.57
2023-02-15T17:05:22.158Z,15.20
2023-02-15T17:08:06.773Z,15.00
2023-02-15T17:10:42.439Z,13.13
2023-02-15T17:13:16.811Z,15.07
2023-02-15T17:15:45.573Z,14.55
2023-02-15T17:18:23.095Z,14.20
2023-02-15T17:20:51.713Z,12.60
2023-02-15T17:24:01.897Z,14.10
2023-02-15T17:26:33.600Z,14.43
2023-02-15T17:29:10.443Z,14.15
2023-02-15T17:31:37.019Z,16.25
2023-02-15T17:34:04.077Z,14.35
2023-02-15T17:36:32.196Z,14.43
2023-02-15T17:38:58.539Z,14.07
2023-02-15T17:41:34.970Z,14.93
2023-02-15T17:44:08.294Z,14.65
2023-02-15T17:46:37.897Z,20.65
2023-02-15T17:49:04.911Z,16.40
2023-02-15T17:51:32.899Z,16.70
2023-02-15T17:54:17.938Z,14.70
2023-02-15T17:56:44.270Z,15.07
2023-02-15T17:59:12.300Z,14.73
2023-02-15T18:02:09.314Z,14.75
2023-02-15T18:04:56.070Z,16.17
2023-02-15T18:07:41.043Z,15.43
2023-02-15T18:10:34.601Z,15.45
2023-02-15T18:13:00.924Z,15.27
2023-02-15T18:15:27.680Z,14.57
2023-02-15T18:17:54.931Z,14.68
2023-02-15T18:20:24.908Z,15.15
2023-02-15T18:22:52.266Z,14.73
2023-02-15T18:25:21.479Z,14.90
2023-02-15T18:27:48.084Z,15.98
2023-02-15T18:30:20.281Z,16.40
2023-02-15T18:32:51.203Z,16.45
2023-02-15T18:35:23.950Z,16.55
2023-02-15T18:37:52.150Z,17.55
2023-02-15T18:40:25.509Z,17.27
2023-02-15T18:42:52.076Z,17.88
2023-02-15T18:45:21.844Z,17.13
2023-02-15T18:47:48.532Z,17.85
2023-02-15T18:50:16.811Z,18.45
2023-02-15T18:52:46.228Z,18.13
2023-02-15T18:55:27.743Z,20.52
2023-02-15T18:57:56.441Z,19.23
2023-02-15T19:00:28.378Z,24.83
2023-02-15T19:02:55.668Z,25.00
2023-02-15T19:05:22.851Z,18.05
2023-02-15T19:07:50.149Z,19.20
2023-02-15T19:10:22.625Z,27.27
2023-02-15T19:12:50.138Z,17.20
2023-02-15T19:15:18.838Z,21.23
2023-02-15T19:17:45.297Z,19.77
2023-02-15T19:20:17.539Z,20.08
2023-02-15T19:22:46.576Z,24.60
2023-02-15T19:25:18.987Z,14.93
2023-02-15T19:27:46.630Z,17.95
2023-02-15T19:30:23.987Z,19.38
2023-02-15T19:32:50.347Z,16.85
2023-02-15T19:35:21.801Z,17.92
2023-02-15T19:37:53.482Z,16.88
2023-02-15T19:40:25.952Z,17.90
2023-02-15T19:42:52.903Z,18.35
2023-02-15T19:45:22.033Z,15.88
2023-02-15T19:47:48.722Z,18.10
2023-02-15T19:50:17.714Z,18.25
2023-02-15T19:52:44.890Z,18.90
2023-02-15T19:55:30.794Z,35.67
2023-02-15T19:57:58.480Z,27.75
2023-02-15T20:00:27.816Z,29.60
2023-02-15T20:02:55.861Z,26.00
2023-02-15T20:05:22.940Z,26.88
2023-02-15T20:07:52.217Z,30.88
2023-02-15T20:10:21.156Z,51.85
2023-02-15T20:12:47.794Z,25.23
2023-02-15T20:15:27.328Z,36.63
2023-02-15T20:17:55.160Z,55.53
2023-02-15T20:20:23.539Z,59.70
2023-02-15T20:22:51.693Z,77.45
2023-02-15T20:25:26.348Z,56.25
2023-02-15T20:27:53.817Z,26.58
2023-02-15T20:30:25.498Z,23.08
2023-02-15T20:32:51.916Z,22.45
2023-02-15T20:35:20.551Z,29.00
2023-02-15T20:37:49.660Z,21.65
2023-02-15T20:40:19.871Z,21.67
2023-02-15T20:42:46.601Z,21.13
2023-02-15T20:45:23.890Z,20.05
2023-02-15T20:47:51.339Z,18.83
2023-02-15T20:50:30.251Z,18.60
2023-02-15T20:52:58.716Z,17.40
2023-02-15T20:55:30.340Z,19.42
2023-02-15T20:57:58.260Z,19.20
2023-02-15T21:00:28.226Z,20.30
2023-02-15T21:02:57.349Z,21.40
2023-02-15T21:05:26.925Z,17.13
2023-02-15T21:07:54.141Z,18.13
2023-02-15T21:10:23.736Z,19.25
2023-02-15T21:12:51.906Z,17.50
2023-02-15T21:15:34.361Z,19.27
2023-02-15T21:18:06.900Z,18.33
2023-02-15T21:20:34.999Z,17.63
2023-02-15T21:23:04.616Z,19.52
2023-02-15T21:25:36.439Z,17.90
2023-02-15T21:28:03.971Z,17.98
2023-02-15T21:30:30.432Z,17.60
2023-02-15T21:32:56.838Z,20.55
2023-02-15T21:35:23.227Z,18.05
2023-02-15T21:37:51.257Z,19.48
2023-02-15T21:40:27.672Z,17.48
2023-02-15T21:43:12.880Z,18.00
2023-02-15T21:45:58.116Z,17.13
2023-02-15T21:48:24.471Z,16.67
2023-02-15T21:51:09.894Z,19.55
2023-02-15T21:53:45.879Z,15.48
2023-02-15T21:56:16.043Z,18.38
2023-02-15T21:58:42.890Z,15.93
2023-02-15T22:01:25.862Z,18.42
2023-02-15T22:03:54.680Z,20.00
2023-02-15T22:06:21.434Z,18.05
2023-02-15T22:08:47.978Z,18.75
2023-02-15T22:11:17.472Z,18.02
2023-02-15T22:13:45.037Z,19.42
2023-02-15T22:16:19.625Z,15.07
2023-02-15T22:18:46.608Z,18.40
2023-02-15T22:21:13.114Z,19.30
2023-02-15T22:23:39.412Z,18.60
2023-02-15T22:26:09.047Z,19.17
2023-02-15T22:28:38.511Z,18.98
2023-02-15T22:31:10.468Z,20.63
2023-02-15T22:33:36.919Z,20.13
2023-02-15T22:36:03.730Z,19.60
2023-02-15T22:38:30.407Z,20.20
2023-02-15T22:41:03.582Z,19.50
2023-02-15T22:43:41.894Z,19.20
2023-02-15T22:46:15.694Z,19.83
2023-02-15T22:48:43.664Z,19.55
2023-02-15T22:51:19.909Z,20.20
2023-02-15T22:53:49.401Z,18.92
2023-02-15T22:56:20.208Z,20.40
2023-02-15T22:58:50.389Z,18.77
2023-02-15T23:01:24.733Z,18.77
2023-02-15T23:03:51.367Z,20.38
2023-02-15T23:06:17.708Z,20.00
2023-02-15T23:08:44.049Z,18.58
2023-02-15T23:11:11.184Z,19.42
2023-02-15T23:13:37.829Z,19.25
2023-02-15T23:16:06.208Z,19.42
2023-02-15T23:18:36.822Z,19.88
2023-02-15T23:21:06.726Z,20.85
2023-02-15T23:23:37.105Z,20.20
2023-02-15T23:26:04.876Z,20.17
2023-02-15T23:28:36.950Z,18.35
2023-02-15T23:31:15.679Z,19.38
2023-02-15T23:33:42.310Z,18.90
2023-02-15T23:36:39.142Z,19.23
2023-02-15T23:39:33.505Z,17.38
2023-02-15T23:42:01.997Z,20.33
2023-02-15T23:44:30.054Z,19.50
2023-02-15T23:46:58.046Z,19.73
2023-02-15T23:49:24.705Z,19.85
2023-02-15T23:51:55.718Z,19.17
2023-02-15T23:54:25.096Z,19.13
2023-02-15T23:56:55.090Z,19.83
2023-02-15T23:59:26.562Z,19.38
